sensor_id;sensor_type;location;lat;lon;timestamp;temperature;humidity
17415;DHT22;8825;48.086;16.426;2024-01-10T00:00:43;-4.20;61.00
17415;DHT22;8825;48.086;16.426;2024-01-10T00:03:11;-4.20;61.00
17415;DHT22;8825;48.086;16.426;2024-01-10T00:05:38;-4.20;60.90
17415;DHT22;8825;48.086;16.426;2024-01-10T00:08:06;-4.20;61.00
17415;DHT22;8825;48.086;16.426;2024-01-10T00:10:33;-4.20;61.10
17415;DHT22;8825;48.086;16.426;2024-01-10T00:13:20;-4.20;61.00
17415;DHT22;8825;48.086;16.426;2024-01-10T00:15:49;-4.20;60.80
17415;DHT22;8825;48.086;16.426;2024-01-10T00:18:36;-4.20;60.90
17415;DHT22;8825;48.086;16.426;2024-01-10T00:21:04;-4.20;60.60
17415;DHT22;8825;48.086;16.426;2024-01-10T00:23:31;-4.20;60.80
17415;DHT22;8825;48.086;16.426;2024-01-10T00:25:59;-4.20;60.70
17415;DHT22;8825;48.086;16.426;2024-01-10T00:28:27;-4.20;60.70
17415;DHT22;8825;48.086;16.426;2024-01-10T00:30:54;-4.20;60.60
17415;DHT22;8825;48.086;16.426;2024-01-10T00:33:22;-4.20;60.60
17415;DHT22;8825;48.086;16.426;2024-01-10T00:35:49;-4.20;60.60
17415;DHT22;8825;48.086;16.426;2024-01-10T00:38:17;-4.20;60.60
17415;DHT22;8825;48.086;16.426;2024-01-10T00:40:44;-4.20;60.60
17415;DHT22;8825;48.086;16.426;2024-01-10T00:43:12;-4.20;60.60
17415;DHT22;8825;48.086;16.426;2024-01-10T00:45:40;-4.20;60.60
17415;DHT22;8825;48.086;16.426;2024-01-10T00:48:07;-4.20;60.60
17415;DHT22;8825;48.086;16.426;2024-01-10T00:50:35;-4.20;60.60
17415;DHT22;8825;48.086;16.426;2024-01-10T00:53:02;-4.30;60.50
17415;DHT22;8825;48.086;16.426;2024-01-10T00:55:30;-4.30;60.50
17415;DHT22;8825;48.086;16.426;2024-01-10T00:57:57;-4.30;60.50
17415;DHT22;8825;48.086;16.426;2024-01-10T01:00:25;-4.30;60.60
17415;DHT22;8825;48.086;16.426;2024-01-10T01:02:53;-4.40;60.80
17415;DHT22;8825;48.086;16.426;2024-01-10T01:05:21;-4.40;60.80
17415;DHT22;8825;48.086;16.426;2024-01-10T01:07:48;-4.30;60.90
17415;DHT22;8825;48.086;16.426;2024-01-10T01:10:16;-4.30;60.90
17415;DHT22;8825;48.086;16.426;2024-01-10T01:12:43;-4.30;60.90
17415;DHT22;8825;48.086;16.426;2024-01-10T01:15:11;-4.30;61.80
17415;DHT22;8825;48.086;16.426;2024-01-10T01:17:38;-4.30;61.00
17415;DHT22;8825;48.086;16.426;2024-01-10T01:20:07;-4.30;61.00
17415;DHT22;8825;48.086;16.426;2024-01-10T01:22:35;-4.30;61.00
17415;DHT22;8825;48.086;16.426;2024-01-10T01:25:02;-4.30;61.00
17415;DHT22;8825;48.086;16.426;2024-01-10T01:27:30;-4.30;61.10
17415;DHT22;8825;48.086;16.426;2024-01-10T01:29:58;-4.30;61.10
17415;DHT22;8825;48.086;16.426;2024-01-10T01:32:26;-4.30;61.10
17415;DHT22;8825;48.086;16.426;2024-01-10T01:34:53;-4.30;61.10
17415;DHT22;8825;48.086;16.426;2024-01-10T01:37:21;-4.30;61.00
17415;DHT22;8825;48.086;16.426;2024-01-10T01:39:48;-4.30;61.00
17415;DHT22;8825;48.086;16.426;2024-01-10T01:42:16;-4.30;61.00
17415;DHT22;8825;48.086;16.426;2024-01-10T01:44:43;-4.30;61.00
17415;DHT22;8825;48.086;16.426;2024-01-10T01:47:11;-4.30;61.00
17415;DHT22;8825;48.086;16.426;2024-01-10T01:49:39;-4.30;61.00
17415;DHT22;8825;48.086;16.426;2024-01-10T01:52:08;-4.30;60.90
17415;DHT22;8825;48.086;16.426;2024-01-10T01:54:36;-4.40;60.90
17415;DHT22;8825;48.086;16.426;2024-01-10T01:57:04;-4.40;61.20
17415;DHT22;8825;48.086;16.426;2024-01-10T01:59:32;-4.40;60.90
17415;DHT22;8825;48.086;16.426;2024-01-10T02:02:02;-4.40;60.80
17415;DHT22;8825;48.086;16.426;2024-01-10T02:04:31;-4.40;60.80
17415;DHT22;8825;48.086;16.426;2024-01-10T02:06:59;-4.40;61.70
17415;DHT22;8825;48.086;16.426;2024-01-10T02:09:26;-4.40;60.90
17415;DHT22;8825;48.086;16.426;2024-01-10T02:11:54;-4.50;60.80
17415;DHT22;8825;48.086;16.426;2024-01-10T02:14:22;-4.50;60.80
17415;DHT22;8825;48.086;16.426;2024-01-10T02:16:50;-4.50;60.80
17415;DHT22;8825;48.086;16.426;2024-01-10T02:19:22;-4.50;60.90
17415;DHT22;8825;48.086;16.426;2024-01-10T02:21:50;-4.50;60.90
17415;DHT22;8825;48.086;16.426;2024-01-10T02:24:17;-4.60;60.80
17415;DHT22;8825;48.086;16.426;2024-01-10T02:26:45;-4.60;60.90
17415;DHT22;8825;48.086;16.426;2024-01-10T02:29:13;-4.60;60.90
17415;DHT22;8825;48.086;16.426;2024-01-10T02:31:40;-4.60;60.90
17415;DHT22;8825;48.086;16.426;2024-01-10T02:34:08;-4.60;60.90
17415;DHT22;8825;48.086;16.426;2024-01-10T02:36:35;-4.60;60.90
17415;DHT22;8825;48.086;16.426;2024-01-10T02:39:03;-4.60;60.90
17415;DHT22;8825;48.086;16.426;2024-01-10T02:41:31;-4.60;60.90
17415;DHT22;8825;48.086;16.426;2024-01-10T02:43:58;-4.60;61.00
17415;DHT22;8825;48.086;16.426;2024-01-10T02:46:26;-4.70;60.90
17415;DHT22;8825;48.086;16.426;2024-01-10T02:48:55;-4.60;60.90
17415;DHT22;8825;48.086;16.426;2024-01-10T02:51:26;-4.70;60.90
17415;DHT22;8825;48.086;16.426;2024-01-10T02:53:53;-4.70;60.90
17415;DHT22;8825;48.086;16.426;2024-01-10T02:56:21;-4.60;61.80
17415;DHT22;8825;48.086;16.426;2024-01-10T02:58:48;-4.70;60.90
17415;DHT22;8825;48.086;16.426;2024-01-10T03:01:16;-4.70;61.00
17415;DHT22;8825;48.086;16.426;2024-01-10T03:03:43;-4.70;61.00
17415;DHT22;8825;48.086;16.426;2024-01-10T03:06:11;-4.70;61.10
17415;DHT22;8825;48.086;16.426;2024-01-10T03:08:38;-4.70;61.10
17415;DHT22;8825;48.086;16.426;2024-01-10T03:11:06;-4.70;61.20
17415;DHT22;8825;48.086;16.426;2024-01-10T03:13:33;-4.70;61.30
17415;DHT22;8825;48.086;16.426;2024-01-10T03:16:01;-4.70;61.30
17415;DHT22;8825;48.086;16.426;2024-01-10T03:18:28;-4.70;61.30
17415;DHT22;8825;48.086;16.426;2024-01-10T03:20:56;-4.70;61.30
17415;DHT22;8825;48.086;16.426;2024-01-10T03:23:23;-4.70;61.40
17415;DHT22;8825;48.086;16.426;2024-01-10T03:25:51;-4.80;61.30
17415;DHT22;8825;48.086;16.426;2024-01-10T03:28:18;-4.80;61.30
17415;DHT22;8825;48.086;16.426;2024-01-10T03:30:46;-4.70;61.30
17415;DHT22;8825;48.086;16.426;2024-01-10T03:33:14;-4.80;61.30
17415;DHT22;8825;48.086;16.426;2024-01-10T03:35:43;-4.80;61.30
17415;DHT22;8825;48.086;16.426;2024-01-10T03:38:10;-4.80;61.30
17415;DHT22;8825;48.086;16.426;2024-01-10T03:40:38;-4.80;61.30
17415;DHT22;8825;48.086;16.426;2024-01-10T03:43:05;-4.80;61.30
17415;DHT22;8825;48.086;16.426;2024-01-10T03:45:33;-4.80;61.30
17415;DHT22;8825;48.086;16.426;2024-01-10T03:48:00;-4.80;61.40
17415;DHT22;8825;48.086;16.426;2024-01-10T03:50:28;-4.80;61.30
17415;DHT22;8825;48.086;16.426;2024-01-10T03:52:55;-4.80;61.30
17415;DHT22;8825;48.086;16.426;2024-01-10T03:55:23;-4.90;61.10
17415;DHT22;8825;48.086;16.426;2024-01-10T03:57:50;-4.90;61.10
17415;DHT22;8825;48.086;16.426;2024-01-10T04:00:18;-4.90;61.10
17415;DHT22;8825;48.086;16.426;2024-01-10T04:02:46;-4.90;61.10
17415;DHT22;8825;48.086;16.426;2024-01-10T04:05:14;-4.90;61.00
17415;DHT22;8825;48.086;16.426;2024-01-10T04:07:42;-5.00;61.00
17415;DHT22;8825;48.086;16.426;2024-01-10T04:10:10;-5.00;61.10
17415;DHT22;8825;48.086;16.426;2024-01-10T04:12:40;-5.00;61.30
17415;DHT22;8825;48.086;16.426;2024-01-10T04:15:09;-5.00;61.20
17415;DHT22;8825;48.086;16.426;2024-01-10T04:17:36;-5.00;61.20
17415;DHT22;8825;48.086;16.426;2024-01-10T04:20:04;-5.00;61.20
17415;DHT22;8825;48.086;16.426;2024-01-10T04:22:33;-5.10;61.10
17415;DHT22;8825;48.086;16.426;2024-01-10T04:25:01;-5.10;61.20
17415;DHT22;8825;48.086;16.426;2024-01-10T04:27:29;-5.10;61.10
17415;DHT22;8825;48.086;16.426;2024-01-10T04:29:57;-5.10;61.00
17415;DHT22;8825;48.086;16.426;2024-01-10T04:32:24;-5.20;61.00
17415;DHT22;8825;48.086;16.426;2024-01-10T04:34:52;-5.20;61.10
17415;DHT22;8825;48.086;16.426;2024-01-10T04:37:19;-5.20;61.20
17415;DHT22;8825;48.086;16.426;2024-01-10T04:39:47;-5.20;61.20
17415;DHT22;8825;48.086;16.426;2024-01-10T04:42:14;-5.20;61.30
17415;DHT22;8825;48.086;16.426;2024-01-10T04:44:42;-5.30;61.30
17415;DHT22;8825;48.086;16.426;2024-01-10T04:47:09;-5.30;61.30
17415;DHT22;8825;48.086;16.426;2024-01-10T04:49:37;-5.30;61.40
17415;DHT22;8825;48.086;16.426;2024-01-10T04:52:05;-5.30;62.50
17415;DHT22;8825;48.086;16.426;2024-01-10T04:54:32;-5.30;61.70
17415;DHT22;8825;48.086;16.426;2024-01-10T04:57:00;-5.30;61.80
17415;DHT22;8825;48.086;16.426;2024-01-10T04:59:28;-5.30;61.80
17415;DHT22;8825;48.086;16.426;2024-01-10T05:01:55;-5.30;61.80
17415;DHT22;8825;48.086;16.426;2024-01-10T05:04:23;-5.30;61.70
17415;DHT22;8825;48.086;16.426;2024-01-10T05:06:50;-5.30;61.80
17415;DHT22;8825;48.086;16.426;2024-01-10T05:09:18;-5.30;61.80
17415;DHT22;8825;48.086;16.426;2024-01-10T05:11:45;-5.30;62.00
17415;DHT22;8825;48.086;16.426;2024-01-10T05:14:18;-5.30;61.90
17415;DHT22;8825;48.086;16.426;2024-01-10T05:16:49;-5.30;61.90
17415;DHT22;8825;48.086;16.426;2024-01-10T05:19:17;-5.30;61.80
17415;DHT22;8825;48.086;16.426;2024-01-10T05:21:44;-5.30;61.90
17415;DHT22;8825;48.086;16.426;2024-01-10T05:24:12;-5.30;62.10
17415;DHT22;8825;48.086;16.426;2024-01-10T05:26:39;-5.30;62.20
17415;DHT22;8825;48.086;16.426;2024-01-10T05:29:07;-5.40;62.10
17415;DHT22;8825;48.086;16.426;2024-01-10T05:31:34;-5.30;62.20
17415;DHT22;8825;48.086;16.426;2024-01-10T05:34:02;-5.40;62.10
17415;DHT22;8825;48.086;16.426;2024-01-10T05:36:31;-5.40;61.90
17415;DHT22;8825;48.086;16.426;2024-01-10T05:39:00;-5.40;61.90
17415;DHT22;8825;48.086;16.426;2024-01-10T05:41:28;-5.40;61.90
17415;DHT22;8825;48.086;16.426;2024-01-10T05:43:56;-5.40;62.10
17415;DHT22;8825;48.086;16.426;2024-01-10T05:46:23;-5.40;62.20
17415;DHT22;8825;48.086;16.426;2024-01-10T05:48:51;-5.40;62.30
17415;DHT22;8825;48.086;16.426;2024-01-10T05:51:18;-5.40;62.20
17415;DHT22;8825;48.086;16.426;2024-01-10T05:53:46;-5.40;62.20
17415;DHT22;8825;48.086;16.426;2024-01-10T05:56:13;-5.40;62.30
17415;DHT22;8825;48.086;16.426;2024-01-10T05:58:41;-5.40;62.30
17415;DHT22;8825;48.086;16.426;2024-01-10T06:01:09;-5.40;62.40
17415;DHT22;8825;48.086;16.426;2024-01-10T06:03:37;-5.30;62.50
17415;DHT22;8825;48.086;16.426;2024-01-10T06:06:05;-5.40;62.40
17415;DHT22;8825;48.086;16.426;2024-01-10T06:08:33;-5.40;62.30
17415;DHT22;8825;48.086;16.426;2024-01-10T06:11:05;-5.40;62.30
17415;DHT22;8825;48.086;16.426;2024-01-10T06:13:34;-5.40;62.30
17415;DHT22;8825;48.086;16.426;2024-01-10T06:16:06;-5.40;62.40
17415;DHT22;8825;48.086;16.426;2024-01-10T06:18:34;-5.40;62.40
17415;DHT22;8825;48.086;16.426;2024-01-10T06:21:01;-5.40;62.50
17415;DHT22;8825;48.086;16.426;2024-01-10T06:23:29;-5.40;62.60
17415;DHT22;8825;48.086;16.426;2024-01-10T06:25:56;-5.30;62.70
17415;DHT22;8825;48.086;16.426;2024-01-10T06:28:24;-5.30;62.70
17415;DHT22;8825;48.086;16.426;2024-01-10T06:30:51;-5.30;63.20
17415;DHT22;8825;48.086;16.426;2024-01-10T06:33:19;-5.30;62.80
17415;DHT22;8825;48.086;16.426;2024-01-10T06:35:46;-5.30;62.90
17415;DHT22;8825;48.086;16.426;2024-01-10T06:38:14;-5.30;62.90
17415;DHT22;8825;48.086;16.426;2024-01-10T06:40:43;-5.20;63.00
17415;DHT22;8825;48.086;16.426;2024-01-10T06:43:30;-5.20;62.90
17415;DHT22;8825;48.086;16.426;2024-01-10T06:45:58;-5.20;62.60
17415;DHT22;8825;48.086;16.426;2024-01-10T06:48:25;-5.20;62.70
17415;DHT22;8825;48.086;16.426;2024-01-10T06:50:53;-5.20;62.80
17415;DHT22;8825;48.086;16.426;2024-01-10T06:53:20;-5.20;62.50
17415;DHT22;8825;48.086;16.426;2024-01-10T06:55:48;-5.30;62.20
17415;DHT22;8825;48.086;16.426;2024-01-10T06:58:15;-5.40;62.00
17415;DHT22;8825;48.086;16.426;2024-01-10T07:00:43;-5.40;62.00
17415;DHT22;8825;48.086;16.426;2024-01-10T07:03:10;-5.50;61.90
17415;DHT22;8825;48.086;16.426;2024-01-10T07:05:38;-5.50;61.90
17415;DHT22;8825;48.086;16.426;2024-01-10T07:08:06;-5.50;62.80
17415;DHT22;8825;48.086;16.426;2024-01-10T07:10:33;-5.50;61.90
17415;DHT22;8825;48.086;16.426;2024-01-10T07:13:01;-5.50;62.00
17415;DHT22;8825;48.086;16.426;2024-01-10T07:15:30;-5.60;62.00
17415;DHT22;8825;48.086;16.426;2024-01-10T07:17:58;-5.50;62.20
17415;DHT22;8825;48.086;16.426;2024-01-10T07:20:25;-5.50;62.30
17415;DHT22;8825;48.086;16.426;2024-01-10T07:22:53;-5.50;62.30
17415;DHT22;8825;48.086;16.426;2024-01-10T07:25:21;-5.50;62.50
17415;DHT22;8825;48.086;16.426;2024-01-10T07:27:50;-5.50;62.50
17415;DHT22;8825;48.086;16.426;2024-01-10T07:30:23;-5.50;62.60
17415;DHT22;8825;48.086;16.426;2024-01-10T07:32:51;-5.50;62.80
17415;DHT22;8825;48.086;16.426;2024-01-10T07:35:18;-5.40;62.90
17415;DHT22;8825;48.086;16.426;2024-01-10T07:37:47;-5.40;63.00
17415;DHT22;8825;48.086;16.426;2024-01-10T07:43:36;-5.30;63.30
17415;DHT22;8825;48.086;16.426;2024-01-10T07:46:04;-5.20;63.30
17415;DHT22;8825;48.086;16.426;2024-01-10T07:48:32;-5.10;63.50
17415;DHT22;8825;48.086;16.426;2024-01-10T07:51:00;-5.10;63.60
17415;DHT22;8825;48.086;16.426;2024-01-10T07:53:27;-5.00;63.70
17415;DHT22;8825;48.086;16.426;2024-01-10T07:56:10;-4.90;63.80
17415;DHT22;8825;48.086;16.426;2024-01-10T07:58:39;-4.80;63.90
17415;DHT22;8825;48.086;16.426;2024-01-10T08:01:07;-4.70;63.80
17415;DHT22;8825;48.086;16.426;2024-01-10T08:03:36;-4.60;63.90
17415;DHT22;8825;48.086;16.426;2024-01-10T08:06:04;-4.60;63.70
17415;DHT22;8825;48.086;16.426;2024-01-10T08:08:32;-4.50;63.90
17415;DHT22;8825;48.086;16.426;2024-01-10T08:11:00;-4.40;63.80
17415;DHT22;8825;48.086;16.426;2024-01-10T08:13:27;-4.40;63.80
17415;DHT22;8825;48.086;16.426;2024-01-10T08:15:55;-4.30;63.70
17415;DHT22;8825;48.086;16.426;2024-01-10T08:18:23;-4.20;63.60
17415;DHT22;8825;48.086;16.426;2024-01-10T08:21:04;-4.10;63.50
17415;DHT22;8825;48.086;16.426;2024-01-10T08:23:31;-4.00;63.40
17415;DHT22;8825;48.086;16.426;2024-01-10T08:26:07;-3.90;63.60
17415;DHT22;8825;48.086;16.426;2024-01-10T08:28:35;-3.80;63.60
17415;DHT22;8825;48.086;16.426;2024-01-10T08:34:24;-3.70;63.40
17415;DHT22;8825;48.086;16.426;2024-01-10T08:36:53;-3.60;63.20
17415;DHT22;8825;48.086;16.426;2024-01-10T08:39:21;-3.40;63.20
17415;DHT22;8825;48.086;16.426;2024-01-10T08:41:50;-3.40;63.00
17415;DHT22;8825;48.086;16.426;2024-01-10T08:44:19;-3.30;62.90
17415;DHT22;8825;48.086;16.426;2024-01-10T08:46:46;-3.20;62.80
17415;DHT22;8825;48.086;16.426;2024-01-10T08:49:14;-3.00;62.70
17415;DHT22;8825;48.086;16.426;2024-01-10T08:51:42;-3.00;62.50
17415;DHT22;8825;48.086;16.426;2024-01-10T08:54:10;-2.90;62.50
17415;DHT22;8825;48.086;16.426;2024-01-10T08:56:39;-2.90;62.90
17415;DHT22;8825;48.086;16.426;2024-01-10T08:59:06;-2.70;63.10
17415;DHT22;8825;48.086;16.426;2024-01-10T09:01:34;-2.60;63.20
17415;DHT22;8825;48.086;16.426;2024-01-10T09:04:02;-2.50;63.20
17415;DHT22;8825;48.086;16.426;2024-01-10T09:06:32;-2.30;62.90
17415;DHT22;8825;48.086;16.426;2024-01-10T09:09:01;-2.20;62.70
17415;DHT22;8825;48.086;16.426;2024-01-10T09:11:40;-2.10;62.50
17415;DHT22;8825;48.086;16.426;2024-01-10T09:14:07;-2.00;62.40
17415;DHT22;8825;48.086;16.426;2024-01-10T09:16:35;-1.80;62.50
17415;DHT22;8825;48.086;16.426;2024-01-10T09:19:02;-1.40;62.90
17415;DHT22;8825;48.086;16.426;2024-01-10T09:21:30;-0.60;62.50
17415;DHT22;8825;48.086;16.426;2024-01-10T09:23:58;0.00;61.40
17415;DHT22;8825;48.086;16.426;2024-01-10T09:26:25;0.50;60.70
17415;DHT22;8825;48.086;16.426;2024-01-10T09:28:53;0.80;59.50
17415;DHT22;8825;48.086;16.426;2024-01-10T09:31:20;1.10;58.50
17415;DHT22;8825;48.086;16.426;2024-01-10T09:33:48;1.90;57.80
17415;DHT22;8825;48.086;16.426;2024-01-10T09:36:15;2.70;56.60
17415;DHT22;8825;48.086;16.426;2024-01-10T09:38:43;3.60;54.80
17415;DHT22;8825;48.086;16.426;2024-01-10T09:41:11;4.30;53.60
17415;DHT22;8825;48.086;16.426;2024-01-10T09:43:39;4.90;51.50
17415;DHT22;8825;48.086;16.426;2024-01-10T09:46:07;5.40;50.00
17415;DHT22;8825;48.086;16.426;2024-01-10T09:48:36;5.90;49.30
17415;DHT22;8825;48.086;16.426;2024-01-10T09:51:04;6.20;47.00
17415;DHT22;8825;48.086;16.426;2024-01-10T09:53:35;6.50;46.90
17415;DHT22;8825;48.086;16.426;2024-01-10T09:56:04;6.90;45.20
17415;DHT22;8825;48.086;16.426;2024-01-10T09:58:32;7.30;45.00
17415;DHT22;8825;48.086;16.426;2024-01-10T10:01:01;7.70;44.60
17415;DHT22;8825;48.086;16.426;2024-01-10T10:03:31;8.10;44.00
17415;DHT22;8825;48.086;16.426;2024-01-10T10:06:00;8.60;43.20
17415;DHT22;8825;48.086;16.426;2024-01-10T10:08:27;9.10;42.30
17415;DHT22;8825;48.086;16.426;2024-01-10T10:10:55;9.40;41.10
17415;DHT22;8825;48.086;16.426;2024-01-10T10:13:27;9.30;40.10
17415;DHT22;8825;48.086;16.426;2024-01-10T10:15:59;9.20;38.90
17415;DHT22;8825;48.086;16.426;2024-01-10T10:18:28;8.70;39.00
17415;DHT22;8825;48.086;16.426;2024-01-10T10:21:09;8.80;39.20
17415;DHT22;8825;48.086;16.426;2024-01-10T10:23:57;9.00;39.50
17415;DHT22;8825;48.086;16.426;2024-01-10T10:26:27;9.40;39.40
17415;DHT22;8825;48.086;16.426;2024-01-10T10:28:55;9.90;39.00
17415;DHT22;8825;48.086;16.426;2024-01-10T10:31:24;10.30;38.60
17415;DHT22;8825;48.086;16.426;2024-01-10T10:33:52;10.50;38.10
17415;DHT22;8825;48.086;16.426;2024-01-10T10:36:20;10.80;37.70
17415;DHT22;8825;48.086;16.426;2024-01-10T10:38:48;11.10;37.20
17415;DHT22;8825;48.086;16.426;2024-01-10T10:41:15;11.40;36.90
17415;DHT22;8825;48.086;16.426;2024-01-10T10:43:43;11.50;36.50
17415;DHT22;8825;48.086;16.426;2024-01-10T10:46:12;11.60;36.30
17415;DHT22;8825;48.086;16.426;2024-01-10T10:48:39;11.80;35.70
17415;DHT22;8825;48.086;16.426;2024-01-10T10:51:12;11.60;35.70
17415;DHT22;8825;48.086;16.426;2024-01-10T10:53:42;11.40;36.10
17415;DHT22;8825;48.086;16.426;2024-01-10T10:56:12;11.60;36.30
17415;DHT22;8825;48.086;16.426;2024-01-10T10:58:45;11.50;36.00
17415;DHT22;8825;48.086;16.426;2024-01-10T11:01:12;11.60;36.00
17415;DHT22;8825;48.086;16.426;2024-01-10T11:03:41;11.80;35.90
17415;DHT22;8825;48.086;16.426;2024-01-10T11:06:13;11.80;35.40
17415;DHT22;8825;48.086;16.426;2024-01-10T11:08:44;11.60;35.30
17415;DHT22;8825;48.086;16.426;2024-01-10T11:11:19;11.60;35.60
17415;DHT22;8825;48.086;16.426;2024-01-10T11:16:55;11.40;35.20
17415;DHT22;8825;48.086;16.426;2024-01-10T11:22:05;10.50;36.10
17415;DHT22;8825;48.086;16.426;2024-01-10T11:24:29;10.10;36.10
17415;DHT22;8825;48.086;16.426;2024-01-10T11:27:13;9.30;37.20
17415;DHT22;8825;48.086;16.426;2024-01-10T11:29:42;8.80;38.20
17415;DHT22;8825;48.086;16.426;2024-01-10T11:32:19;8.10;39.20
17415;DHT22;8825;48.086;16.426;2024-01-10T11:34:58;7.80;40.10
17415;DHT22;8825;48.086;16.426;2024-01-10T11:37:50;7.40;40.80
17415;DHT22;8825;48.086;16.426;2024-01-10T11:39:58;7.00;42.00
17415;DHT22;8825;48.086;16.426;2024-01-10T11:42:45;6.70;42.20
17415;DHT22;8825;48.086;16.426;2024-01-10T11:45:09;6.50;43.20
17415;DHT22;8825;48.086;16.426;2024-01-10T11:47:40;6.20;43.70
17415;DHT22;8825;48.086;16.426;2024-01-10T11:50:09;6.00;44.20
17415;DHT22;8825;48.086;16.426;2024-01-10T11:52:38;5.90;44.50
17415;DHT22;8825;48.086;16.426;2024-01-10T11:55:06;5.90;45.00
17415;DHT22;8825;48.086;16.426;2024-01-10T11:57:34;5.80;45.30
17415;DHT22;8825;48.086;16.426;2024-01-10T12:00:02;5.70;45.60
17415;DHT22;8825;48.086;16.426;2024-01-10T12:02:32;5.60;45.80
17415;DHT22;8825;48.086;16.426;2024-01-10T12:05:00;5.70;46.00
17415;DHT22;8825;48.086;16.426;2024-01-10T12:07:28;5.70;46.70
17415;DHT22;8825;48.086;16.426;2024-01-10T12:09:55;5.80;46.00
17415;DHT22;8825;48.086;16.426;2024-01-10T12:12:23;5.70;46.00
17415;DHT22;8825;48.086;16.426;2024-01-10T12:14:51;5.50;46.20
17415;DHT22;8825;48.086;16.426;2024-01-10T12:17:19;5.30;46.50
17415;DHT22;8825;48.086;16.426;2024-01-10T12:19:46;5.10;47.00
17415;DHT22;8825;48.086;16.426;2024-01-10T12:22:16;4.90;47.40
17415;DHT22;8825;48.086;16.426;2024-01-10T12:24:48;4.80;47.80
17415;DHT22;8825;48.086;16.426;2024-01-10T12:27:19;4.80;48.20
17415;DHT22;8825;48.086;16.426;2024-01-10T12:29:51;4.60;48.50
17415;DHT22;8825;48.086;16.426;2024-01-10T12:32:20;4.60;48.80
17415;DHT22;8825;48.086;16.426;2024-01-10T12:34:49;4.50;49.10
17415;DHT22;8825;48.086;16.426;2024-01-10T12:37:18;4.40;49.30
17415;DHT22;8825;48.086;16.426;2024-01-10T12:39:47;4.40;49.50
17415;DHT22;8825;48.086;16.426;2024-01-10T12:42:16;4.40;49.70
17415;DHT22;8825;48.086;16.426;2024-01-10T12:44:47;4.30;49.70
17415;DHT22;8825;48.086;16.426;2024-01-10T12:47:22;4.30;49.80
17415;DHT22;8825;48.086;16.426;2024-01-10T12:49:51;4.30;50.00
17415;DHT22;8825;48.086;16.426;2024-01-10T12:52:20;4.30;50.30
17415;DHT22;8825;48.086;16.426;2024-01-10T12:54:48;4.20;51.20
17415;DHT22;8825;48.086;16.426;2024-01-10T12:57:15;4.20;50.90
17415;DHT22;8825;48.086;16.426;2024-01-10T12:59:43;4.20;51.20
17415;DHT22;8825;48.086;16.426;2024-01-10T13:02:11;4.10;51.40
17415;DHT22;8825;48.086;16.426;2024-01-10T13:04:39;4.10;51.60
17415;DHT22;8825;48.086;16.426;2024-01-10T13:07:06;4.10;51.70
17415;DHT22;8825;48.086;16.426;2024-01-10T13:09:34;4.10;51.90
17415;DHT22;8825;48.086;16.426;2024-01-10T13:12:01;4.10;52.10
17415;DHT22;8825;48.086;16.426;2024-01-10T13:14:30;4.00;52.10
17415;DHT22;8825;48.086;16.426;2024-01-10T13:16:58;4.00;52.30
17415;DHT22;8825;48.086;16.426;2024-01-10T13:19:25;3.90;52.40
17415;DHT22;8825;48.086;16.426;2024-01-10T13:21:53;3.80;52.50
17415;DHT22;8825;48.086;16.426;2024-01-10T13:24:20;3.80;52.70
17415;DHT22;8825;48.086;16.426;2024-01-10T13:26:48;3.70;52.80
17415;DHT22;8825;48.086;16.426;2024-01-10T13:29:16;3.70;53.00
17415;DHT22;8825;48.086;16.426;2024-01-10T13:31:43;3.70;53.20
17415;DHT22;8825;48.086;16.426;2024-01-10T13:34:11;3.60;53.40
17415;DHT22;8825;48.086;16.426;2024-01-10T13:36:38;3.60;53.60
17415;DHT22;8825;48.086;16.426;2024-01-10T13:39:06;3.60;53.80
17415;DHT22;8825;48.086;16.426;2024-01-10T13:41:34;3.50;54.50
17415;DHT22;8825;48.086;16.426;2024-01-10T13:44:01;3.50;54.10
17415;DHT22;8825;48.086;16.426;2024-01-10T13:46:30;3.50;54.20
17415;DHT22;8825;48.086;16.426;2024-01-10T13:48:58;3.40;54.30
17415;DHT22;8825;48.086;16.426;2024-01-10T13:51:25;3.40;54.40
17415;DHT22;8825;48.086;16.426;2024-01-10T13:53:53;3.40;54.60
17415;DHT22;8825;48.086;16.426;2024-01-10T13:56:20;3.40;54.80
17415;DHT22;8825;48.086;16.426;2024-01-10T13:58:49;3.30;54.90
17415;DHT22;8825;48.086;16.426;2024-01-10T14:01:16;3.30;55.00
17415;DHT22;8825;48.086;16.426;2024-01-10T14:03:44;3.30;55.10
17415;DHT22;8825;48.086;16.426;2024-01-10T14:06:11;3.40;55.10
17415;DHT22;8825;48.086;16.426;2024-01-10T14:08:39;3.40;55.10
17415;DHT22;8825;48.086;16.426;2024-01-10T14:11:07;3.40;55.20
17415;DHT22;8825;48.086;16.426;2024-01-10T14:13:35;3.40;55.20
17415;DHT22;8825;48.086;16.426;2024-01-10T14:16:03;3.40;55.20
17415;DHT22;8825;48.086;16.426;2024-01-10T14:18:30;3.40;55.30
17415;DHT22;8825;48.086;16.426;2024-01-10T14:20:58;3.40;55.40
17415;DHT22;8825;48.086;16.426;2024-01-10T14:23:26;3.40;55.40
17415;DHT22;8825;48.086;16.426;2024-01-10T14:25:53;3.40;55.50
17415;DHT22;8825;48.086;16.426;2024-01-10T14:28:21;3.40;55.60
17415;DHT22;8825;48.086;16.426;2024-01-10T14:30:48;3.40;55.60
17415;DHT22;8825;48.086;16.426;2024-01-10T14:33:16;3.40;55.70
17415;DHT22;8825;48.086;16.426;2024-01-10T14:35:43;3.40;55.80
17415;DHT22;8825;48.086;16.426;2024-01-10T14:38:11;3.30;55.80
17415;DHT22;8825;48.086;16.426;2024-01-10T14:40:38;3.30;55.90
17415;DHT22;8825;48.086;16.426;2024-01-10T14:43:06;3.30;56.00
17415;DHT22;8825;48.086;16.426;2024-01-10T14:45:34;3.20;55.90
17415;DHT22;8825;48.086;16.426;2024-01-10T14:48:02;3.20;56.00
17415;DHT22;8825;48.086;16.426;2024-01-10T14:50:30;3.20;56.00
17415;DHT22;8825;48.086;16.426;2024-01-10T14:52:57;3.10;56.00
17415;DHT22;8825;48.086;16.426;2024-01-10T14:55:25;3.10;56.10
17415;DHT22;8825;48.086;16.426;2024-01-10T14:57:52;3.10;56.20
17415;DHT22;8825;48.086;16.426;2024-01-10T15:00:20;3.00;56.30
17415;DHT22;8825;48.086;16.426;2024-01-10T15:02:48;3.00;56.30
17415;DHT22;8825;48.086;16.426;2024-01-10T15:05:16;3.00;56.40
17415;DHT22;8825;48.086;16.426;2024-01-10T15:07:44;2.90;56.50
17415;DHT22;8825;48.086;16.426;2024-01-10T15:10:11;2.90;56.50
17415;DHT22;8825;48.086;16.426;2024-01-10T15:12:39;2.90;56.60
17415;DHT22;8825;48.086;16.426;2024-01-10T15:15:07;2.90;56.60
17415;DHT22;8825;48.086;16.426;2024-01-10T15:17:35;2.90;56.70
17415;DHT22;8825;48.086;16.426;2024-01-10T15:20:03;2.80;56.70
17415;DHT22;8825;48.086;16.426;2024-01-10T15:22:31;2.80;56.70
17415;DHT22;8825;48.086;16.426;2024-01-10T15:24:58;2.80;57.40
17415;DHT22;8825;48.086;16.426;2024-01-10T15:27:27;2.90;57.40
17415;DHT22;8825;48.086;16.426;2024-01-10T15:29:55;2.90;57.10
17415;DHT22;8825;48.086;16.426;2024-01-10T15:32:22;2.80;57.70
17415;DHT22;8825;48.086;16.426;2024-01-10T15:34:51;2.80;57.00
17415;DHT22;8825;48.086;16.426;2024-01-10T15:37:18;2.80;57.10
17415;DHT22;8825;48.086;16.426;2024-01-10T15:39:46;2.70;57.00
17415;DHT22;8825;48.086;16.426;2024-01-10T15:42:14;2.70;57.10
17415;DHT22;8825;48.086;16.426;2024-01-10T15:44:43;2.60;57.20
17415;DHT22;8825;48.086;16.426;2024-01-10T15:47:10;2.60;57.20
17415;DHT22;8825;48.086;16.426;2024-01-10T15:49:38;2.60;57.40
17415;DHT22;8825;48.086;16.426;2024-01-10T15:52:06;2.60;57.50
17415;DHT22;8825;48.086;16.426;2024-01-10T15:54:34;2.50;57.50
17415;DHT22;8825;48.086;16.426;2024-01-10T15:57:08;2.50;57.60